Time;durP1;ratioP1;P1;durP2;ratioP2;P2;SDS_P1;SDS_P2;PMS_P1;PMS_P2;Temp;Humidity;BMP_temperature;BMP_pressure;BME280_temperature;BME280_humidity;BME280_pressure;Samples;Min_cycle;Max_cycle;Signal;HPM_P1;HPM_P2
2021/05/14 00:00:22;;;;;;;3.58;0.80;;;11.20;99.90;;;;;;5053277;28;20177;-71
2021/05/14 00:02:47;;;;;;;3.50;0.88;;;11.20;99.90;;;;;;5043136;28;20667;-71
2021/05/14 00:05:16;;;;;;;4.30;0.87;;;11.20;99.90;;;;;;5053213;28;20220;-72
2021/05/14 00:07:41;;;;;;;3.75;0.88;;;11.20;99.90;;;;;;5036203;28;20182;-70
2021/05/14 00:10:09;;;;;;;3.37;0.63;;;11.20;99.90;;;;;;5033355;28;20216;-71
2021/05/14 00:12:35;;;;;;;3.65;0.68;;;11.20;99.90;;;;;;5037547;28;20224;-72
2021/05/14 00:15:01;;;;;;;4.80;1.10;;;11.20;99.90;;;;;;5037013;28;20197;-72
2021/05/14 00:17:45;;;;;;;3.40;0.65;;;11.20;99.90;;;;;;5020740;28;20182;-71
2021/05/14 00:20:11;;;;;;;3.30;0.60;;;11.20;99.90;;;;;;5043329;28;20647;-72
2021/05/14 00:22:37;;;;;;;3.60;0.70;;;11.30;99.90;;;;;;5053721;28;20169;-71
2021/05/14 00:25:07;;;;;;;3.57;0.63;;;11.30;99.90;;;;;;5027141;28;20556;-72
2021/05/14 00:27:33;;;;;;;3.50;0.75;;;11.30;99.90;;;;;;5034300;28;20192;-72
2021/05/14 00:29:59;;;;;;;3.75;0.82;;;11.30;99.90;;;;;;5038841;28;20231;-72
2021/05/14 00:32:28;;;;;;;3.85;0.77;;;11.20;99.90;;;;;;5051148;28;20275;-72
2021/05/14 00:34:53;;;;;;;3.40;0.60;;;11.20;99.90;;;;;;5044664;28;20728;-72
2021/05/14 00:37:19;;;;;;;4.03;1.03;;;11.20;99.90;;;;;;5031263;28;20170;-73
2021/05/14 00:39:45;;;;;;;3.87;0.77;;;11.20;99.90;;;;;;5034749;28;20177;-72
2021/05/14 00:42:11;;;;;;;3.40;0.60;;;11.10;99.90;;;;;;5031938;28;20181;-70
2021/05/14 00:44:39;;;;;;;3.30;0.50;;;11.20;99.90;;;;;;5034737;28;20202;-71
2021/05/14 00:47:09;;;;;;;4.00;0.70;;;11.20;99.90;;;;;;5053175;28;20408;-74
2021/05/14 00:49:36;;;;;;;3.40;0.70;;;11.10;99.90;;;;;;5043239;28;20173;-72
2021/05/14 00:52:03;;;;;;;3.60;0.60;;;11.10;99.90;;;;;;5053161;28;20497;-72
2021/05/14 00:54:30;;;;;;;3.88;0.75;;;11.10;99.90;;;;;;5052069;28;20209;-72
2021/05/14 00:56:58;;;;;;;3.38;0.60;;;11.10;99.90;;;;;;5018120;28;20174;-72
2021/05/14 00:59:23;;;;;;;3.45;0.50;;;11.00;99.90;;;;;;5036807;28;20186;-73
2021/05/14 01:01:49;;;;;;;3.60;0.60;;;11.00;99.90;;;;;;5055800;28;20215;-72
2021/05/14 01:04:15;;;;;;;3.97;0.77;;;11.00;99.90;;;;;;5045990;28;20439;-72
2021/05/14 01:06:40;;;;;;;3.40;0.50;;;11.00;99.90;;;;;;5054103;28;20181;-73
2021/05/14 01:09:06;;;;;;;3.60;0.40;;;11.00;99.90;;;;;;5055636;28;20201;-72
2021/05/14 01:11:33;;;;;;;3.50;0.77;;;10.90;99.90;;;;;;5053270;28;20180;-72
2021/05/14 01:13:59;;;;;;;3.83;0.70;;;10.90;99.90;;;;;;5056335;28;20166;-73
2021/05/14 01:16:25;;;;;;;3.80;0.80;;;10.90;99.90;;;;;;5053878;28;20231;-73
2021/05/14 01:18:51;;;;;;;4.03;0.80;;;10.80;99.90;;;;;;5056839;28;20215;-73
2021/05/14 01:21:17;;;;;;;4.70;1.00;;;10.80;99.90;;;;;;5044205;28;20592;-73
2021/05/14 01:23:43;;;;;;;4.07;0.80;;;10.80;99.90;;;;;;5036251;28;20316;-73
2021/05/14 01:26:15;;;;;;;3.70;0.80;;;10.80;99.90;;;;;;5047529;28;20209;-73
2021/05/14 01:28:41;;;;;;;3.60;0.73;;;10.80;99.90;;;;;;5056296;28;20404;-73
2021/05/14 01:31:07;;;;;;;3.70;0.60;;;10.80;99.90;;;;;;5045854;28;20181;-73
2021/05/14 01:33:33;;;;;;;3.95;0.70;;;10.80;99.90;;;;;;5036072;28;20178;-73
2021/05/14 01:36:00;;;;;;;3.70;1.00;;;10.70;99.90;;;;;;5045756;28;20201;-73
2021/05/14 01:38:26;;;;;;;6.18;1.13;;;10.70;99.90;;;;;;5056369;28;20169;-73
2021/05/14 01:40:55;;;;;;;4.50;0.63;;;10.60;99.90;;;;;;5048870;28;20186;-73
2021/05/14 01:43:21;;;;;;;3.90;0.65;;;10.60;99.90;;;;;;5036773;28;20182;-73
2021/05/14 01:45:46;;;;;;;6.73;1.10;;;10.60;99.90;;;;;;5045965;28;20254;-73
2021/05/14 01:48:12;;;;;;;3.80;0.90;;;10.60;99.90;;;;;;5055425;28;20783;-73
2021/05/14 01:50:38;;;;;;;3.50;0.50;;;10.60;99.90;;;;;;5036377;28;20591;-73
2021/05/14 01:53:04;;;;;;;3.67;0.70;;;10.60;99.90;;;;;;5035848;28;20546;-73
2021/05/14 01:55:30;;;;;;;3.63;0.60;;;10.60;99.90;;;;;;5054245;28;20208;-73
2021/05/14 01:57:55;;;;;;;3.60;0.60;;;10.50;99.90;;;;;;5056074;28;20239;-73
2021/05/14 02:00:22;;;;;;;3.70;0.57;;;10.50;99.90;;;;;;5047224;28;20189;-73
2021/05/14 02:02:47;;;;;;;3.78;0.80;;;10.50;99.90;;;;;;5054494;28;20234;-73
2021/05/14 02:05:13;;;;;;;4.80;0.83;;;10.50;99.90;;;;;;5037525;28;20205;-73
2021/05/14 02:07:39;;;;;;;4.38;1.10;;;10.50;99.90;;;;;;5033060;28;20579;-73
2021/05/14 02:10:06;;;;;;;3.90;0.80;;;10.50;99.90;;;;;;5040663;28;20174;-73
2021/05/14 02:12:32;;;;;;;4.50;0.95;;;10.50;99.90;;;;;;5033963;28;20193;-74
2021/05/14 02:14:57;;;;;;;3.75;1.00;;;10.50;99.90;;;;;;5044964;28;20201;-73
2021/05/14 02:17:23;;;;;;;3.50;0.50;;;10.50;99.90;;;;;;5054665;28;20501;-73
2021/05/14 02:19:49;;;;;;;3.70;0.90;;;10.70;99.90;;;;;;5037835;28;20185;-73
2021/05/14 02:22:15;;;;;;;3.67;1.03;;;10.60;99.90;;;;;;5016007;28;20440;-73
2021/05/14 02:24:41;;;;;;;3.85;0.75;;;10.50;99.90;;;;;;5019413;28;21015;-73
2021/05/14 02:27:07;;;;;;;4.73;0.80;;;10.50;99.90;;;;;;5035932;28;20182;-73
2021/05/14 02:29:35;;;;;;;4.47;0.83;;;10.40;99.90;;;;;;5051307;28;20263;-73
2021/05/14 02:32:03;;;;;;;7.05;0.65;;;10.40;99.90;;;;;;5047365;28;20798;-73
2021/05/14 02:34:28;;;;;;;3.40;0.43;;;10.30;99.90;;;;;;5033665;28;20192;-73
2021/05/14 02:36:54;;;;;;;3.90;1.27;;;10.20;99.90;;;;;;5034606;28;20162;-73
2021/05/14 02:39:20;;;;;;;5.20;0.77;;;10.10;99.90;;;;;;5046686;28;20205;-72
2021/05/14 02:41:46;;;;;;;4.17;1.00;;;10.00;99.90;;;;;;5055150;28;20442;-73
2021/05/14 02:44:12;;;;;;;4.27;1.20;;;10.00;99.90;;;;;;5044166;28;20686;-73
2021/05/14 02:46:37;;;;;;;3.70;0.70;;;9.90;99.90;;;;;;5052291;28;20284;-72
2021/05/14 02:49:04;;;;;;;3.63;0.60;;;9.90;99.90;;;;;;5046464;28;20424;-73
2021/05/14 02:51:30;;;;;;;6.28;0.95;;;9.80;99.90;;;;;;5035015;28;20634;-73
2021/05/14 02:53:56;;;;;;;3.90;0.80;;;9.70;99.90;;;;;;5040558;28;20264;-73
2021/05/14 02:56:21;;;;;;;3.70;0.70;;;9.70;99.90;;;;;;5053456;28;20264;-73
2021/05/14 02:58:47;;;;;;;3.83;0.80;;;9.60;99.90;;;;;;5049895;28;20182;-73
2021/05/14 03:01:13;;;;;;;4.00;0.90;;;9.60;99.90;;;;;;5034693;28;20209;-73
2021/05/14 03:03:38;;;;;;;3.70;0.60;;;9.50;99.90;;;;;;5036703;28;20178;-73
2021/05/14 03:06:04;;;;;;;3.80;0.70;;;9.50;99.90;;;;;;5054526;28;20213;-73
2021/05/14 03:08:30;;;;;;;4.57;0.50;;;9.50;99.90;;;;;;5053574;28;20162;-73
2021/05/14 03:10:56;;;;;;;3.80;0.50;;;9.50;99.90;;;;;;5034707;28;20401;-72
2021/05/14 03:13:22;;;;;;;4.00;0.90;;;9.40;99.90;;;;;;5033988;28;20181;-73
2021/05/14 03:15:47;;;;;;;3.80;0.73;;;9.40;99.90;;;;;;5039285;28;20213;-72
2021/05/14 03:18:13;;;;;;;4.57;1.53;;;9.30;99.90;;;;;;5034263;28;20448;-73
2021/05/14 03:20:39;;;;;;;4.20;0.77;;;9.30;99.90;;;;;;5052023;28;20192;-72
2021/05/14 03:23:04;;;;;;;4.53;0.70;;;9.30;99.90;;;;;;5053624;28;20180;-72
2021/05/14 03:25:30;;;;;;;4.67;0.77;;;9.20;99.90;;;;;;5037487;28;20202;-73
2021/05/14 03:27:55;;;;;;;4.17;0.90;;;9.20;99.90;;;;;;5034145;28;20264;-73
2021/05/14 03:30:21;;;;;;;4.00;0.83;;;9.20;99.90;;;;;;5048045;28;20650;-73
2021/05/14 03:32:47;;;;;;;4.07;0.87;;;9.30;99.90;;;;;;5054253;28;20207;-73
2021/05/14 03:35:13;;;;;;;4.43;0.87;;;9.30;99.90;;;;;;5039857;28;20200;-73
2021/05/14 03:37:39;;;;;;;4.20;0.80;;;9.40;99.90;;;;;;5037075;28;20222;-73
2021/05/14 03:40:34;;;;;;;4.50;1.08;;;9.40;99.90;;;;;;5024037;28;20655;-73
2021/05/14 03:43:01;;;;;;;8.13;1.40;;;9.40;99.90;;;;;;5033845;28;20209;-73
2021/05/14 03:45:27;;;;;;;4.45;0.73;;;9.30;99.90;;;;;;5047496;28;20215;-73
2021/05/14 03:47:54;;;;;;;4.30;0.70;;;9.30;99.90;;;;;;5051657;28;20256;-72
2021/05/14 03:50:20;;;;;;;4.45;0.90;;;9.30;99.90;;;;;;5023508;28;20192;-73
2021/05/14 03:52:46;;;;;;;4.38;0.80;;;9.20;99.90;;;;;;5032708;28;20213;-73
2021/05/14 03:55:13;;;;;;;4.73;0.90;;;9.20;99.90;;;;;;5042431;28;20247;-72
2021/05/14 03:57:38;;;;;;;4.72;0.65;;;9.10;99.90;;;;;;5033913;28;20575;-72
2021/05/14 04:00:06;;;;;;;4.17;0.97;;;9.10;99.90;;;;;;5042222;28;20185;-73
2021/05/14 04:02:31;;;;;;;4.20;0.85;;;9.10;99.90;;;;;;5035828;28;20182;-72
2021/05/14 04:04:58;;;;;;;4.10;0.70;;;9.20;99.90;;;;;;5039862;28;20208;-73
2021/05/14 04:07:24;;;;;;;4.50;1.10;;;9.20;99.90;;;;;;5035598;28;20673;-73
2021/05/14 04:10:00;;;;;;;4.97;0.90;;;9.20;99.90;;;;;;5046546;28;20209;-72
2021/05/14 04:15:09;;;;;;;4.10;0.63;;;9.30;99.90;;;;;;5048619;28;20679;-72
2021/05/14 04:17:35;;;;;;;4.13;0.60;;;9.30;99.90;;;;;;5047522;28;20177;-73
2021/05/14 04:20:01;;;;;;;4.50;0.77;;;9.40;99.90;;;;;;5033341;28;20162;-72
2021/05/14 04:22:27;;;;;;;4.60;0.90;;;9.40;99.90;;;;;;5036970;28;20196;-72
2021/05/14 04:24:53;;;;;;;4.35;0.80;;;9.40;99.90;;;;;;5052904;28;20288;-73
2021/05/14 04:27:19;;;;;;;4.32;0.60;;;9.50;99.90;;;;;;5050011;28;20239;-73
2021/05/14 04:29:45;;;;;;;4.15;0.73;;;9.50;99.90;;;;;;5033026;28;20188;-73
2021/05/14 04:32:11;;;;;;;4.50;1.10;;;9.50;99.90;;;;;;5049240;28;20649;-72
2021/05/14 04:34:37;;;;;;;3.97;0.50;;;9.60;99.90;;;;;;5032858;28;20479;-73
2021/05/14 04:37:03;;;;;;;5.57;0.93;;;9.50;99.90;;;;;;5033288;28;20424;-72
2021/05/14 04:39:28;;;;;;;4.33;0.93;;;9.50;99.90;;;;;;5052581;28;20259;-72
2021/05/14 04:41:54;;;;;;;5.20;1.60;;;9.40;99.90;;;;;;5053144;28;20830;-72
2021/05/14 04:44:20;;;;;;;4.90;1.13;;;9.40;99.90;;;;;;5034839;28;20197;-72
2021/05/14 04:46:46;;;;;;;4.70;0.90;;;9.40;99.90;;;;;;5015280;28;20264;-73
2021/05/14 04:49:11;;;;;;;5.03;1.17;;;9.50;99.90;;;;;;5049724;28;20299;-73
2021/05/14 04:51:37;;;;;;;4.63;1.37;;;9.70;99.90;;;;;;5053451;28;20589;-73
2021/05/14 04:54:04;;;;;;;5.67;1.00;;;9.90;99.90;;;;;;5036525;28;20261;-73
2021/05/14 04:56:29;;;;;;;5.60;1.20;;;10.10;99.90;;;;;;5015352;28;20230;-73
2021/05/14 04:58:55;;;;;;;4.90;1.20;;;10.30;99.90;;;;;;5046004;28;20185;-73
2021/05/14 05:01:21;;;;;;;6.20;1.50;;;10.70;99.90;;;;;;5036880;28;20671;-73
2021/05/14 05:03:58;;;;;;;5.00;0.90;;;11.20;99.90;;;;;;5025863;28;20239;-73
2021/05/14 05:06:24;;;;;;;8.30;1.80;;;11.80;99.90;;;;;;5052781;28;20301;-73
2021/05/14 05:08:50;;;;;;;4.57;1.17;;;12.30;99.90;;;;;;5041648;28;20675;-73
2021/05/14 05:11:16;;;;;;;4.40;1.00;;;12.50;99.90;;;;;;5033054;28;20196;-73
2021/05/14 05:13:42;;;;;;;4.20;0.90;;;12.50;99.90;;;;;;5041620;28;20652;-72
2021/05/14 05:16:08;;;;;;;4.90;1.20;;;12.70;99.90;;;;;;5052258;28;20681;-73
2021/05/14 05:18:33;;;;;;;4.30;1.00;;;12.80;99.90;;;;;;5045106;28;20288;-73
2021/05/14 05:20:59;;;;;;;4.30;1.20;;;12.80;99.90;;;;;;5045771;28;20430;-73
2021/05/14 05:23:25;;;;;;;4.20;1.00;;;12.80;99.90;;;;;;5045223;28;20234;-73
2021/05/14 05:25:51;;;;;;;5.20;0.97;;;12.80;99.90;;;;;;5034791;28;20496;-74
2021/05/14 05:28:21;;;;;;;3.73;0.80;;;12.80;99.90;;;;;;5017733;28;20454;-73
2021/05/14 05:30:47;;;;;;;3.97;0.87;;;12.70;99.90;;;;;;5033476;28;20663;-74
2021/05/14 05:33:12;;;;;;;3.80;0.80;;;12.70;99.90;;;;;;5038522;28;20421;-73
2021/05/14 05:35:38;;;;;;;4.60;1.13;;;12.70;99.90;;;;;;5052085;28;20193;-74
2021/05/14 05:38:17;;;;;;;4.00;0.90;;;12.70;99.90;;;;;;5046489;28;20577;-73
2021/05/14 05:40:43;;;;;;;4.50;0.80;;;12.80;99.90;;;;;;5034753;28;20178;-73
2021/05/14 05:43:09;;;;;;;4.00;0.77;;;12.80;99.90;;;;;;5035245;28;20174;-73
2021/05/14 05:45:34;;;;;;;4.77;1.27;;;12.90;99.90;;;;;;5037079;28;20702;-74
2021/05/14 05:48:00;;;;;;;3.80;0.77;;;13.00;99.90;;;;;;5036324;28;20183;-71
2021/05/14 05:50:26;;;;;;;4.37;0.80;;;13.00;99.90;;;;;;5037274;28;20186;-70
2021/05/14 05:52:54;;;;;;;10.30;1.53;;;13.00;99.90;;;;;;5036005;28;20170;-69
2021/05/14 05:55:20;;;;;;;9.90;1.83;;;13.00;99.90;;;;;;5043735;28;20302;-71
2021/05/14 05:57:46;;;;;;;3.90;0.90;;;13.10;99.90;;;;;;5055069;28;20529;-69
2021/05/14 06:00:12;;;;;;;4.00;1.23;;;13.20;99.90;;;;;;5048543;28;20424;-70
2021/05/14 06:02:38;;;;;;;3.95;0.98;;;13.20;99.90;;;;;;5035619;28;20163;-70
2021/05/14 06:05:05;;;;;;;4.33;1.00;;;13.30;99.90;;;;;;5040010;28;20698;-69
2021/05/14 06:07:30;;;;;;;4.28;0.80;;;13.30;99.90;;;;;;5035613;28;20469;-67
2021/05/14 06:09:56;;;;;;;4.47;1.03;;;13.40;99.90;;;;;;5038523;28;20192;-73
2021/05/14 06:12:22;;;;;;;6.27;2.30;;;13.50;99.90;;;;;;5054155;28;20246;-71
2021/05/14 06:14:49;;;;;;;8.63;3.17;;;13.60;99.90;;;;;;5036301;28;20191;-70
2021/05/14 06:17:15;;;;;;;4.23;0.67;;;13.60;99.90;;;;;;5055458;28;20651;-71
2021/05/14 06:19:50;;;;;;;3.90;0.83;;;13.60;99.90;;;;;;5054090;28;20485;-65
2021/05/14 06:22:16;;;;;;;4.23;0.87;;;13.60;99.90;;;;;;5015969;28;20631;-70
2021/05/14 06:24:42;;;;;;;3.80;0.87;;;13.60;99.90;;;;;;5004956;28;20508;-65
2021/05/14 06:27:07;;;;;;;3.90;0.80;;;13.80;99.90;;;;;;5036343;28;20216;-68
2021/05/14 06:29:33;;;;;;;4.20;0.93;;;14.00;99.90;;;;;;5050829;28;20207;-68
2021/05/14 06:31:59;;;;;;;4.20;0.80;;;14.00;99.90;;;;;;5047223;28;20166;-69
2021/05/14 06:34:24;;;;;;;4.07;0.80;;;14.20;99.90;;;;;;5054771;28;20614;-69
2021/05/14 06:36:50;;;;;;;3.90;0.87;;;14.40;99.90;;;;;;5042815;28;20180;-68
2021/05/14 06:39:16;;;;;;;3.60;0.60;;;14.70;99.90;;;;;;5035287;28;20303;-68
2021/05/14 06:41:41;;;;;;;4.00;0.90;;;14.90;99.90;;;;;;5035034;28;20180;-69
2021/05/14 06:44:07;;;;;;;4.10;0.90;;;15.10;99.90;;;;;;5034717;28;20166;-70
2021/05/14 06:46:33;;;;;;;5.03;0.67;;;15.20;99.90;;;;;;5034569;28;20201;-68
2021/05/14 06:48:58;;;;;;;3.80;0.70;;;15.20;99.90;;;;;;5034884;28;20170;-68
2021/05/14 06:51:24;;;;;;;10.53;3.93;;;15.40;99.40;;;;;;5050187;28;20528;-70
2021/05/14 06:53:51;;;;;;;3.40;0.60;;;15.60;99.50;;;;;;5054002;28;20185;-70
2021/05/14 06:56:17;;;;;;;4.10;0.60;;;15.70;99.80;;;;;;5036537;28;20197;-69
2021/05/14 06:58:42;;;;;;;3.50;0.53;;;15.70;99.90;;;;;;5035060;28;20486;-70
2021/05/14 07:01:08;;;;;;;4.20;0.70;;;15.60;99.80;;;;;;5054590;28;20176;-68
2021/05/14 07:03:37;;;;;;;3.37;0.50;;;15.50;99.40;;;;;;5054285;28;20187;-68
2021/05/14 07:06:02;;;;;;;4.17;0.73;;;15.50;99.10;;;;;;5039427;28;20236;-67
2021/05/14 07:08:30;;;;;;;3.40;0.50;;;15.50;99.90;;;;;;5034536;28;20524;-69
2021/05/14 07:10:56;;;;;;;3.70;0.70;;;15.50;99.90;;;;;;5034591;28;20539;-67
2021/05/14 07:13:21;;;;;;;3.40;0.50;;;15.40;99.80;;;;;;5034197;28;20571;-68
2021/05/14 07:15:48;;;;;;;3.30;0.50;;;15.50;99.70;;;;;;5044712;28;20314;-72
2021/05/14 07:18:14;;;;;;;5.10;0.97;;;15.50;99.60;;;;;;5054494;28;20263;-67
2021/05/14 07:20:39;;;;;;;3.30;0.60;;;15.60;99.90;;;;;;5054304;28;20474;-67
2021/05/14 07:23:05;;;;;;;10.90;0.80;;;15.80;99.80;;;;;;5053924;28;20421;-67
2021/05/14 07:25:30;;;;;;;3.50;0.60;;;16.00;99.70;;;;;;5053613;28;20202;-68
2021/05/14 07:27:57;;;;;;;3.73;0.90;;;16.40;99.40;;;;;;5053940;28;20243;-68
2021/05/14 07:30:22;;;;;;;3.50;0.50;;;16.80;97.90;;;;;;5053774;28;20226;-66
2021/05/14 07:32:48;;;;;;;3.93;0.80;;;17.40;96.50;;;;;;5054031;28;20797;-66
2021/05/14 07:35:14;;;;;;;3.73;1.33;;;18.00;96.80;;;;;;5053184;28;20225;-66
2021/05/14 07:37:41;;;;;;;3.83;0.60;;;18.60;94.30;;;;;;5052534;28;20189;-69
2021/05/14 07:40:10;;;;;;;3.20;0.50;;;19.40;93.60;;;;;;5035310;28;20515;-67
2021/05/14 07:42:35;;;;;;;3.40;0.53;;;20.20;93.00;;;;;;5033905;28;20510;-68
2021/05/14 07:45:01;;;;;;;3.20;0.60;;;20.50;91.50;;;;;;5033277;28;20556;-68
2021/05/14 07:47:27;;;;;;;3.30;0.60;;;21.50;91.40;;;;;;5033858;28;20166;-67
2021/05/14 07:49:53;;;;;;;3.40;0.60;;;22.80;88.00;;;;;;5033806;28;20514;-68
2021/05/14 07:52:18;;;;;;;2.93;0.50;;;24.00;82.40;;;;;;5033731;28;20272;-67
2021/05/14 07:54:44;;;;;;;3.10;0.60;;;24.90;76.70;;;;;;5049912;28;20205;-67
2021/05/14 07:57:10;;;;;;;2.90;0.57;;;25.40;72.30;;;;;;5053732;28;20650;-67
2021/05/14 07:59:35;;;;;;;2.70;0.50;;;26.10;73.00;;;;;;5053648;28;20208;-66
2021/05/14 08:02:01;;;;;;;2.60;0.57;;;27.10;67.30;;;;;;5045931;28;20182;-67
2021/05/14 08:04:26;;;;;;;2.53;0.50;;;28.00;63.10;;;;;;5031639;28;20213;-66
2021/05/14 08:06:52;;;;;;;3.27;0.97;;;28.20;60.60;;;;;;5032808;28;20178;-65
2021/05/14 08:09:23;;;;;;;2.80;1.00;;;27.20;59.70;;;;;;5033673;28;20205;-67
2021/05/14 08:11:50;;;;;;;2.60;0.60;;;26.50;61.40;;;;;;5033774;28;20166;-67
2021/05/14 08:14:17;;;;;;;2.60;0.70;;;26.60;62.80;;;;;;5033065;28;20457;-67
2021/05/14 08:16:43;;;;;;;2.40;0.50;;;27.00;60.10;;;;;;5033745;28;20421;-67
2021/05/14 08:19:11;;;;;;;2.37;0.50;;;27.10;59.90;;;;;;5033086;28;20416;-66
2021/05/14 08:21:39;;;;;;;2.60;0.50;;;26.50;59.40;;;;;;5033351;28;20416;-66
2021/05/14 08:24:06;;;;;;;2.50;0.50;;;25.50;59.30;;;;;;5032709;28;20428;-67
2021/05/14 08:26:31;;;;;;;2.57;0.57;;;24.70;62.90;;;;;;5032795;28;20447;-68
2021/05/14 08:28:57;;;;;;;2.60;0.53;;;23.80;65.80;;;;;;5033203;28;20771;-68
2021/05/14 08:31:23;;;;;;;2.80;0.70;;;22.70;67.60;;;;;;5039139;28;20266;-65
2021/05/14 08:33:48;;;;;;;2.47;0.60;;;21.50;68.70;;;;;;5052483;28;20209;-68
2021/05/14 08:36:14;;;;;;;3.77;0.70;;;20.80;71.80;;;;;;5052850;28;20202;-66
2021/05/14 08:38:39;;;;;;;2.60;0.70;;;20.50;74.00;;;;;;5053078;28;20693;-67
2021/05/14 08:41:06;;;;;;;2.60;0.50;;;20.00;76.20;;;;;;5052961;28;20228;-67
2021/05/14 08:43:33;;;;;;;2.70;0.60;;;19.50;76.60;;;;;;5052661;28;20176;-66
2021/05/14 08:46:02;;;;;;;3.00;0.70;;;19.10;78.20;;;;;;5029619;28;21020;-67
2021/05/14 08:48:31;;;;;;;4.40;0.80;;;18.60;79.00;;;;;;5033135;28;20419;-68
2021/05/14 08:50:56;;;;;;;2.70;0.50;;;18.30;80.20;;;;;;5033162;28;20420;-67
2021/05/14 08:53:22;;;;;;;2.63;0.50;;;18.30;82.90;;;;;;5033118;28;20410;-66
2021/05/14 08:55:48;;;;;;;2.80;0.40;;;19.20;81.00;;;;;;5049124;28;20200;-66
2021/05/14 08:58:13;;;;;;;3.03;0.60;;;20.50;76.40;;;;;;5052961;28;20162;-67
2021/05/14 09:00:39;;;;;;;2.80;0.50;;;21.30;74.00;;;;;;5043285;28;20294;-67
2021/05/14 09:03:09;;;;;;;2.50;0.40;;;21.70;71.00;;;;;;5032857;28;20563;-66
2021/05/14 09:05:35;;;;;;;2.70;0.50;;;21.70;72.70;;;;;;5032996;28;20551;-68
2021/05/14 09:08:03;;;;;;;2.50;0.40;;;21.30;70.30;;;;;;5032910;28;20419;-68
2021/05/14 09:10:30;;;;;;;2.73;0.47;;;20.60;72.80;;;;;;5033024;28;20415;-67
2021/05/14 09:12:57;;;;;;;2.50;0.40;;;20.00;74.80;;;;;;5032817;28;20416;-68
2021/05/14 09:15:24;;;;;;;2.60;0.60;;;19.50;79.00;;;;;;5032413;28;20769;-67
2021/05/14 09:18:13;;;;;;;3.10;0.60;;;19.10;80.30;;;;;;5035220;28;20425;-67
2021/05/14 09:21:02;;;;;;;2.50;0.50;;;19.00;80.60;;;;;;5036535;28;20417;-68
2021/05/14 09:23:36;;;;;;;3.97;0.90;;;18.80;81.20;;;;;;5029937;28;20424;-67
2021/05/14 09:26:10;;;;;;;2.60;0.50;;;19.60;81.20;;;;;;5043316;28;20470;-67
2021/05/14 09:28:41;;;;;;;2.50;0.50;;;20.30;78.50;;;;;;5036468;28;20436;-68
2021/05/14 09:31:18;;;;;;;2.73;0.50;;;20.60;74.20;;;;;;5036281;28;20417;-67
2021/05/14 09:33:59;;;;;;;2.50;0.50;;;20.40;73.30;;;;;;5036251;28;20409;-68
2021/05/14 09:36:34;;;;;;;2.90;0.70;;;20.20;74.90;;;;;;5036083;28;20418;-67
2021/05/14 09:39:09;;;;;;;3.10;0.53;;;20.20;76.10;;;;;;5044002;28;20441;-66
2021/05/14 09:41:36;;;;;;;2.60;0.50;;;20.50;72.60;;;;;;5056124;28;20463;-65
2021/05/14 09:44:13;;;;;;;2.80;0.60;;;20.60;71.60;;;;;;5055794;28;20473;-66
2021/05/14 09:46:43;;;;;;;3.50;1.23;;;20.40;72.40;;;;;;5055787;28;20469;-67
2021/05/14 09:49:19;;;;;;;3.03;0.73;;;20.20;72.90;;;;;;5056212;28;20745;-67
2021/05/14 09:51:48;;;;;;;2.50;0.40;;;19.80;74.10;;;;;;5056130;28;20415;-67
2021/05/14 09:54:23;;;;;;;2.70;0.50;;;19.30;76.40;;;;;;5055574;28;20526;-67
2021/05/14 10:00:00;;;;;;;3.43;0.53;;;18.30;85.60;;;;;;5038279;28;20429;-68
2021/05/14 10:02:30;;;;;;;2.67;0.50;;;17.90;90.00;;;;;;5035988;28;20429;-69
2021/05/14 10:04:59;;;;;;;3.10;0.40;;;17.60;91.30;;;;;;5017765;28;20460;-71
2021/05/14 10:07:26;;;;;;;2.93;0.47;;;17.30;92.30;;;;;;5035705;28;20408;-71
2021/05/14 10:09:55;;;;;;;3.10;0.70;;;16.90;94.40;;;;;;5035553;28;20434;-68
2021/05/14 10:12:22;;;;;;;3.10;0.50;;;16.70;93.90;;;;;;5035521;28;20417;-72
2021/05/14 10:14:48;;;;;;;3.17;0.70;;;16.60;94.50;;;;;;5035206;28;20504;-70
2021/05/14 10:17:14;;;;;;;2.70;0.40;;;16.50;94.60;;;;;;5035664;28;20425;-71
2021/05/14 10:19:42;;;;;;;3.10;0.70;;;16.50;96.20;;;;;;5035683;28;20471;-71
2021/05/14 10:22:09;;;;;;;2.70;0.40;;;16.50;93.90;;;;;;5035513;28;20414;-70
2021/05/14 10:24:44;;;;;;;3.53;0.60;;;16.60;92.30;;;;;;5034979;28;20426;-69
2021/05/14 10:27:24;;;;;;;2.70;0.50;;;16.80;90.60;;;;;;5017554;28;21011;-69
2021/05/14 10:29:52;;;;;;;2.70;0.47;;;17.00;87.70;;;;;;5014897;28;20468;-70
2021/05/14 10:32:44;;;;;;;2.73;0.50;;;17.20;88.80;;;;;;5015732;28;20404;-71
2021/05/14 10:35:11;;;;;;;4.20;0.60;;;18.10;92.70;;;;;;5004683;28;20494;-70
2021/05/14 10:38:05;;;;;;;3.10;0.70;;;19.30;89.60;;;;;;5015551;28;20417;-66
2021/05/14 10:40:33;;;;;;;2.70;0.50;;;20.70;82.10;;;;;;5015497;28;20414;-69
2021/05/14 10:43:07;;;;;;;2.60;0.40;;;21.70;80.20;;;;;;5030827;28;20911;-71
2021/05/14 10:45:39;;;;;;;2.70;0.67;;;22.10;79.40;;;;;;5054527;28;20959;-69
2021/05/14 10:48:22;;;;;;;2.60;0.50;;;22.60;75.50;;;;;;5054891;28;20393;-69
2021/05/14 10:50:53;;;;;;;3.57;0.90;;;22.90;74.30;;;;;;5043822;28;20393;-70
2021/05/14 10:53:30;;;;;;;3.60;0.70;;;22.90;70.80;;;;;;5034731;28;20410;-70
2021/05/14 10:56:16;;;;;;;3.00;0.50;;;22.80;69.60;;;;;;5035067;28;20429;-71
2021/05/14 10:58:49;;;;;;;2.60;0.43;;;22.10;71.60;;;;;;5024506;28;20741;-71
2021/05/14 11:01:35;;;;;;;2.90;0.87;;;21.80;69.90;;;;;;5034774;28;20431;-71
2021/05/14 11:04:25;;;;;;;12.97;7.17;;;21.40;70.90;;;;;;5034739;28;20379;-70
2021/05/14 11:06:52;;;;;;;2.70;0.60;;;20.90;75.00;;;;;;5014699;28;20476;-72
2021/05/14 11:09:23;;;;;;;3.10;0.80;;;20.10;76.50;;;;;;5014732;28;20448;-71
2021/05/14 11:12:05;;;;;;;3.47;0.60;;;19.30;80.90;;;;;;5014964;28;20486;-74
2021/05/14 11:14:47;;;;;;;3.07;0.70;;;18.40;86.50;;;;;;5026723;28;20445;-69
2021/05/14 11:17:18;;;;;;;2.70;0.43;;;17.80;90.50;;;;;;5053517;28;20428;-71
2021/05/14 11:19:54;;;;;;;5.07;0.70;;;17.10;91.70;;;;;;5051600;28;20410;-71
2021/05/14 11:22:22;;;;;;;3.13;0.77;;;16.50;94.10;;;;;;5033100;28;20818;-72
2021/05/14 11:24:50;;;;;;;5.80;1.17;;;15.90;94.60;;;;;;5033551;28;20807;-72
2021/05/14 11:27:27;;;;;;;2.73;0.50;;;15.60;94.40;;;;;;5034169;28;20940;-71
2021/05/14 11:29:54;;;;;;;2.90;0.60;;;15.30;96.30;;;;;;5034360;28;20755;-70
2021/05/14 11:32:32;;;;;;;4.60;0.97;;;15.00;98.50;;;;;;5034308;28;20806;-70
2021/05/14 11:35:07;;;;;;;3.37;0.83;;;14.70;99.90;;;;;;5036368;28;20532;-70
2021/05/14 11:37:42;;;;;;;2.90;0.60;;;14.50;99.90;;;;;;5053950;28;20406;-70
2021/05/14 11:40:30;;;;;;;3.20;0.77;;;14.60;99.90;;;;;;5053694;28;20462;-69
2021/05/14 11:43:01;;;;;;;3.10;0.70;;;14.90;99.90;;;;;;5043045;28;20501;-71
2021/05/14 11:45:33;;;;;;;8.87;1.10;;;15.10;99.90;;;;;;5034159;28;20435;-72
2021/05/14 11:48:12;;;;;;;3.10;0.70;;;15.40;99.90;;;;;;5033733;28;20425;-73
2021/05/14 11:50:39;;;;;;;3.20;0.67;;;15.90;99.90;;;;;;5033636;28;20408;-70
2021/05/14 11:53:07;;;;;;;3.67;0.83;;;16.30;99.90;;;;;;5033718;28;20397;-72
2021/05/14 11:55:37;;;;;;;4.90;0.50;;;16.40;99.90;;;;;;5033655;28;20935;-71
2021/05/14 11:58:04;;;;;;;3.20;0.60;;;16.50;99.90;;;;;;5035071;28;20401;-71
2021/05/14 12:00:33;;;;;;;3.40;0.67;;;16.50;99.90;;;;;;5048940;28;20822;-71
2021/05/14 12:03:01;;;;;;;2.90;0.40;;;16.40;99.90;;;;;;5033483;28;20737;-73
2021/05/14 12:05:28;;;;;;;3.30;0.60;;;16.40;99.30;;;;;;5033292;28;20453;-71
2021/05/14 12:08:07;;;;;;;3.43;0.70;;;16.50;99.20;;;;;;5033444;28;20449;-73
2021/05/14 12:10:32;;;;;;;2.90;0.43;;;16.70;99.90;;;;;;5033474;28;20467;-73
2021/05/14 12:12:59;;;;;;;2.93;0.30;;;17.00;96.70;;;;;;5033224;28;20408;-73
2021/05/14 12:15:25;;;;;;;2.90;0.50;;;17.20;98.70;;;;;;5032280;28;20699;-73
2021/05/14 12:18:00;;;;;;;2.93;0.43;;;17.30;98.10;;;;;;5014218;28;20952;-71
2021/05/14 12:20:33;;;;;;;2.93;0.50;;;17.40;96.40;;;;;;5040046;28;20469;-70
2021/05/14 12:23:01;;;;;;;2.90;0.43;;;17.50;94.60;;;;;;5053272;28;20414;-69
2021/05/14 12:25:30;;;;;;;4.00;0.50;;;17.70;98.90;;;;;;5052634;28;20799;-70
2021/05/14 12:27:57;;;;;;;4.03;1.03;;;17.90;96.40;;;;;;5053809;28;20457;-70
2021/05/14 12:30:37;;;;;;;2.93;0.40;;;17.90;92.90;;;;;;5053151;28;20506;-72
2021/05/14 12:33:06;;;;;;;3.63;0.53;;;17.90;93.50;;;;;;5052917;28;20457;-73
2021/05/14 12:35:31;;;;;;;3.07;0.50;;;17.90;96.40;;;;;;5042680;28;20447;-74
2021/05/14 12:37:58;;;;;;;3.10;0.40;;;18.00;94.30;;;;;;5032635;28;20414;-72
2021/05/14 12:40:29;;;;;;;2.90;0.40;;;18.00;93.00;;;;;;5033210;28;20660;-76
2021/05/14 12:43:04;;;;;;;2.90;0.40;;;17.90;93.50;;;;;;5027762;28;20410;-68
2021/05/14 12:45:29;;;;;;;2.90;0.40;;;17.90;92.30;;;;;;5021960;28;20457;-73
2021/05/14 12:47:56;;;;;;;2.90;0.50;;;17.80;92.60;;;;;;5026569;28;20409;-74
2021/05/14 12:50:26;;;;;;;2.90;0.40;;;17.80;93.20;;;;;;5032797;28;20259;-72
2021/05/14 12:52:51;;;;;;;2.90;0.40;;;17.80;93.50;;;;;;5035414;28;20410;-70
2021/05/14 12:55:19;;;;;;;4.20;0.60;;;17.70;92.10;;;;;;5036218;28;20516;-72
2021/05/14 12:57:51;;;;;;;5.63;0.93;;;17.70;92.90;;;;;;5038492;28;20171;-72